Time;durP1;ratioP1;P1;durP2;ratioP2;P2;SDS_P1;SDS_P2;PMS_P1;PMS_P2;Temp;Humidity;BMP_temperature;BMP_pressure;BME280_temperature;BME280_humidity;BME280_pressure;Samples;Min_cycle;Max_cycle;Signal;HPM_P1;HPM_P2
2024/03/29 00:02:22;;;;;;;;;;;;;;;3.89;49.48;93592.00;4941586;28;19934;-67
2024/03/29 00:04:48;;;;;;;;;;;;;;;3.84;49.59;93588.28;4942161;28;19926;-67
2024/03/29 00:07:13;;;;;;;;;;;;;;;3.79;47.99;93589.66;4941314;28;19926;-67
2024/03/29 00:09:38;;;;;;;;;;;;;;;3.72;49.77;93599.31;4941405;28;20035;-67
2024/03/29 00:12:04;;;;;;;;;;;;;;;3.58;51.50;93593.06;4941413;28;19926;-67
2024/03/29 00:14:30;;;;;;;;;;;;;;;3.59;50.03;93594.69;4941274;28;19926;-67
2024/03/29 00:16:55;;;;;;;;;;;;;;;3.57;52.55;93596.69;4939511;29;19930;-67
2024/03/29 00:19:20;;;;;;;;;;;;;;;3.48;50.28;93589.91;4941247;28;19977;-67
2024/03/29 00:21:45;;;;;;;;;;;;;;;3.53;50.93;93583.09;4942107;28;20177;-67
2024/03/29 00:24:11;;;;;;;;;;;;;;;3.35;49.79;93587.88;4940712;28;19969;-68
2024/03/29 00:26:36;;;;;;;;;;;;;;;3.22;51.34;93576.19;4940863;28;20001;-67
2024/03/29 00:29:01;;;;;;;;;;;;;;;3.42;51.03;93568.56;4941119;29;20623;-67
2024/03/29 00:31:26;;;;;;;;;;;;;;;3.39;50.58;93555.78;4955873;28;19934;-67
2024/03/29 00:33:52;;;;;;;;;;;;;;;3.38;50.71;93555.94;4941072;28;19953;-66
2024/03/29 00:36:17;;;;;;;;;;;;;;;3.39;50.81;93561.03;4941056;28;19934;-67
2024/03/29 00:38:42;;;;;;;;;;;;;;;3.32;51.30;93557.50;4941093;28;19962;-67
2024/03/29 00:41:07;;;;;;;;;;;;;;;3.35;51.56;93564.22;4942311;29;20697;-67
2024/03/29 00:43:32;;;;;;;;;;;;;;;3.29;50.06;93566.59;4940455;28;19922;-67
2024/03/29 00:45:58;;;;;;;;;;;;;;;3.29;50.40;93560.50;4941334;28;19926;-67
2024/03/29 00:48:23;;;;;;;;;;;;;;;2.86;51.64;93567.22;4941567;29;19993;-67
2024/03/29 00:50:49;;;;;;;;;;;;;;;3.06;50.05;93582.44;4940937;28;19937;-67
2024/03/29 00:53:14;;;;;;;;;;;;;;;3.12;49.69;93586.16;4939866;28;19969;-68
2024/03/29 00:55:40;;;;;;;;;;;;;;;3.14;50.60;93579.72;4940564;28;19969;-68
2024/03/29 00:58:05;;;;;;;;;;;;;;;3.12;51.07;93594.88;4940884;28;20138;-70
2024/03/29 01:00:30;;;;;;;;;;;;;;;3.45;51.17;93585.00;4939277;28;19941;-68
2024/03/29 01:02:55;;;;;;;;;;;;;;;3.59;49.79;93584.16;4938772;28;20408;-69
2024/03/29 01:05:21;;;;;;;;;;;;;;;3.74;50.38;93599.13;4938508;28;20033;-68
2024/03/29 01:07:46;;;;;;;;;;;;;;;3.66;49.94;93594.75;4941199;28;19985;-69
2024/03/29 01:10:11;;;;;;;;;;;;;;;3.83;50.12;93587.47;4940360;28;19926;-69
2024/03/29 01:12:36;;;;;;;;;;;;;;;3.91;50.36;93600.50;4939277;29;19926;-69
2024/03/29 01:15:02;;;;;;;;;;;;;;;3.68;48.98;93577.78;4936652;28;19931;-69
2024/03/29 01:17:28;;;;;;;;;;;;;;;4.02;49.59;93585.25;4941020;29;19922;-68
2024/03/29 01:19:53;;;;;;;;;;;;;;;4.26;50.46;93583.25;4939746;28;20446;-68
2024/03/29 01:22:19;;;;;;;;;;;;;;;4.34;48.49;93585.75;4939297;28;19928;-69
2024/03/29 01:24:44;;;;;;;;;;;;;;;4.30;50.38;93566.06;4936565;28;20300;-69
2024/03/29 01:27:09;;;;;;;;;;;;;;;4.45;49.64;93552.78;4937592;28;20343;-70
2024/03/29 01:29:34;;;;;;;;;;;;;;;4.51;49.72;93543.31;4939056;28;20054;-68
2024/03/29 01:31:59;;;;;;;;;;;;;;;4.51;49.19;93535.41;4940772;28;19962;-68
2024/03/29 01:34:25;;;;;;;;;;;;;;;4.62;48.74;93542.00;4940580;28;20204;-70
2024/03/29 01:36:50;;;;;;;;;;;;;;;4.70;49.09;93555.81;4941040;29;19922;-69
2024/03/29 01:39:18;;;;;;;;;;;;;;;4.76;48.78;93567.41;4940686;28;19923;-69
2024/03/29 01:41:43;;;;;;;;;;;;;;;4.71;48.74;93568.00;4940617;29;19930;-68
2024/03/29 01:44:09;;;;;;;;;;;;;;;4.65;47.03;93560.84;4940936;28;20380;-69
2024/03/29 01:46:35;;;;;;;;;;;;;;;4.73;48.21;93562.53;4940272;28;20292;-69
2024/03/29 01:49:00;;;;;;;;;;;;;;;4.73;48.25;93559.09;4940744;28;19984;-68
2024/03/29 01:51:25;;;;;;;;;;;;;;;4.87;48.34;93558.19;4939431;28;19930;-68
2024/03/29 01:53:52;;;;;;;;;;;;;;;4.91;48.82;93556.78;4940096;28;19946;-69
2024/03/29 01:56:17;;;;;;;;;;;;;;;4.93;48.74;93548.69;4941758;28;20856;-69
2024/03/29 01:58:43;;;;;;;;;;;;;;;4.92;48.59;93531.22;4938846;28;19926;-68
2024/03/29 02:01:08;;;;;;;;;;;;;;;5.01;47.60;93537.16;4940490;28;20326;-68
2024/03/29 02:03:33;;;;;;;;;;;;;;;5.05;48.48;93520.75;4940338;28;20033;-68
2024/03/29 02:06:01;;;;;;;;;;;;;;;5.05;48.39;93518.13;4940052;28;20049;-66
2024/03/29 02:08:26;;;;;;;;;;;;;;;5.08;48.34;93512.50;4940732;28;19922;-68
2024/03/29 02:10:51;;;;;;;;;;;;;;;5.05;48.11;93510.22;4939863;28;19930;-69
2024/03/29 02:13:17;;;;;;;;;;;;;;;5.11;47.61;93498.09;4940602;28;19931;-69
2024/03/29 02:15:42;;;;;;;;;;;;;;;5.17;47.28;93480.66;4939826;28;20348;-68
2024/03/29 02:18:07;;;;;;;;;;;;;;;5.13;47.59;93472.31;4940220;28;19958;-69
2024/03/29 02:20:33;;;;;;;;;;;;;;;5.18;47.00;93483.13;4940086;29;19932;-66
2024/03/29 02:22:59;;;;;;;;;;;;;;;5.21;47.21;93472.13;4939830;28;20005;-66
2024/03/29 02:25:25;;;;;;;;;;;;;;;5.14;45.75;93476.56;4940294;29;19977;-69
2024/03/29 02:27:50;;;;;;;;;;;;;;;5.25;48.06;93482.31;4939807;28;19969;-68
2024/03/29 02:30:15;;;;;;;;;;;;;;;5.28;47.57;93476.63;4938219;29;19981;-68
2024/03/29 02:32:41;;;;;;;;;;;;;;;5.35;47.33;93475.63;4940070;29;20017;-68
2024/03/29 02:35:06;;;;;;;;;;;;;;;5.39;46.40;93462.06;4939587;28;19926;-67
2024/03/29 02:37:32;;;;;;;;;;;;;;;5.40;45.82;93469.78;4940098;29;19933;-69
2024/03/29 02:39:57;;;;;;;;;;;;;;;5.39;47.15;93472.59;4939585;28;19934;-67
2024/03/29 02:42:22;;;;;;;;;;;;;;;5.41;47.72;93476.66;4937221;28;19927;-67
2024/03/29 02:44:47;;;;;;;;;;;;;;;5.46;45.40;93481.38;4939781;28;19925;-68
2024/03/29 02:47:13;;;;;;;;;;;;;;;5.50;45.77;93479.94;4938842;28;19937;-68
2024/03/29 02:49:38;;;;;;;;;;;;;;;5.40;45.77;93466.31;4936670;28;19931;-68
2024/03/29 02:52:03;;;;;;;;;;;;;;;5.63;45.40;93473.91;4937733;29;19926;-69
2024/03/29 02:54:28;;;;;;;;;;;;;;;5.58;44.51;93471.84;4939661;28;20406;-68
2024/03/29 02:56:54;;;;;;;;;;;;;;;5.56;43.20;93471.25;4939641;29;20320;-69
2024/03/29 02:59:19;;;;;;;;;;;;;;;5.52;43.54;93472.66;4938820;28;19949;-68
2024/03/29 03:01:44;;;;;;;;;;;;;;;5.54;42.92;93483.03;4939013;28;19926;-69
2024/03/29 03:04:09;;;;;;;;;;;;;;;5.19;45.99;93468.91;4939744;28;19941;-67
2024/03/29 03:06:35;;;;;;;;;;;;;;;5.30;44.12;93470.16;4940555;28;20251;-67
2024/03/29 03:11:44;;;;;;;;;;;;;;;5.14;43.95;93467.88;4941914;28;19954;-69
2024/03/29 03:14:09;;;;;;;;;;;;;;;5.03;44.27;93470.00;4940912;28;20331;-69
2024/03/29 03:16:34;;;;;;;;;;;;;;;5.21;43.81;93460.78;4943094;29;20857;-69
2024/03/29 03:19:00;;;;;;;;;;;;;;;5.06;45.19;93453.81;4943007;28;19930;-69
2024/03/29 03:21:25;;;;;;;;;;;;;;;5.14;42.14;93455.47;4942280;29;19933;-70
2024/03/29 03:23:50;;;;;;;;;;;;;;;5.43;44.61;93448.28;4943239;28;19934;-69
2024/03/29 03:26:15;;;;;;;;;;;;;;;5.54;41.66;93448.72;4943335;28;19933;-68
2024/03/29 03:28:41;;;;;;;;;;;;;;;5.31;45.73;93457.78;4940653;28;19981;-68
2024/03/29 03:31:07;;;;;;;;;;;;;;;5.56;41.69;93444.84;4941413;28;19971;-68
2024/03/29 03:33:32;;;;;;;;;;;;;;;5.42;42.29;93432.63;4942948;29;20388;-69
2024/03/29 03:35:57;;;;;;;;;;;;;;;5.43;43.61;93442.16;4942389;28;19927;-70
2024/03/29 03:38:22;;;;;;;;;;;;;;;5.50;42.68;93447.50;4942324;28;20119;-68
2024/03/29 03:40:48;;;;;;;;;;;;;;;5.50;42.13;93450.91;4942347;29;19990;-69
2024/03/29 03:43:13;;;;;;;;;;;;;;;5.56;42.07;93451.94;4940605;28;19927;-69
2024/03/29 03:45:39;;;;;;;;;;;;;;;5.34;41.59;93466.09;4943533;28;20446;-70
2024/03/29 03:48:05;;;;;;;;;;;;;;;5.42;41.84;93449.28;4941428;28;19964;-69
2024/03/29 03:50:30;;;;;;;;;;;;;;;5.52;41.87;93445.44;4942561;28;19922;-69
2024/03/29 03:52:56;;;;;;;;;;;;;;;5.55;42.36;93437.13;4939834;29;19964;-70
2024/03/29 03:55:21;;;;;;;;;;;;;;;5.52;42.21;93441.00;4943500;28;20021;-70
2024/03/29 03:57:46;;;;;;;;;;;;;;;5.72;41.06;93427.00;4942738;28;19973;-70
2024/03/29 04:00:12;;;;;;;;;;;;;;;5.70;40.57;93445.69;4957379;28;20548;-68
2024/03/29 04:02:37;;;;;;;;;;;;;;;5.72;41.26;93441.00;4940202;28;19926;-69
2024/03/29 04:05:02;;;;;;;;;;;;;;;5.78;40.98;93449.94;4943108;28;19930;-68
2024/03/29 04:07:27;;;;;;;;;;;;;;;5.37;41.82;93451.69;4941725;28;20283;-68
2024/03/29 04:09:53;;;;;;;;;;;;;;;5.63;42.11;93449.31;4944118;28;19922;-69
2024/03/29 04:12:18;;;;;;;;;;;;;;;5.30;42.06;93453.50;4943014;28;19919;-70
2024/03/29 04:14:43;;;;;;;;;;;;;;;5.33;42.08;93461.03;4943055;28;19929;-68
2024/03/29 04:17:09;;;;;;;;;;;;;;;5.78;41.20;93454.44;4945503;28;19922;-68
2024/03/29 04:19:34;;;;;;;;;;;;;;;5.77;40.86;93464.19;4946001;28;19973;-69
2024/03/29 04:21:59;;;;;;;;;;;;;;;5.74;42.71;93456.66;4961813;28;20383;-70
2024/03/29 04:24:24;;;;;;;;;;;;;;;5.71;42.03;93447.31;4945924;28;20127;-70
2024/03/29 04:26:50;;;;;;;;;;;;;;;5.78;42.66;93438.59;4942817;28;19966;-68
2024/03/29 04:29:16;;;;;;;;;;;;;;;5.56;41.86;93449.31;4942152;28;19930;-69
2024/03/29 04:31:41;;;;;;;;;;;;;;;5.58;42.83;93447.28;4940642;28;19926;-70
2024/03/29 04:34:06;;;;;;;;;;;;;;;5.52;43.94;93448.09;4941616;28;19922;-71
2024/03/29 04:36:32;;;;;;;;;;;;;;;5.71;43.35;93444.66;4942989;28;19973;-70
2024/03/29 04:38:57;;;;;;;;;;;;;;;5.69;44.21;93433.50;4940309;28;19930;-67
2024/03/29 04:41:22;;;;;;;;;;;;;;;5.79;43.77;93430.47;4943003;28;19937;-70
2024/03/29 04:43:47;;;;;;;;;;;;;;;5.93;43.53;93431.28;4940198;28;19927;-67
2024/03/29 04:46:13;;;;;;;;;;;;;;;5.72;43.79;93433.09;4942176;28;20032;-69
2024/03/29 04:48:38;;;;;;;;;;;;;;;5.57;44.70;93435.09;4942404;28;19961;-69
2024/03/29 04:51:04;;;;;;;;;;;;;;;5.77;45.44;93427.22;4943667;28;19926;-68
2024/03/29 04:53:29;;;;;;;;;;;;;;;5.68;44.96;93436.34;4940725;28;20292;-70
2024/03/29 04:55:58;;;;;;;;;;;;;;;5.55;45.81;93421.28;4941795;28;19985;-70
2024/03/29 04:58:23;;;;;;;;;;;;;;;5.58;45.18;93426.97;4942288;28;20692;-68
2024/03/29 05:00:49;;;;;;;;;;;;;;;5.43;46.01;93421.06;4942668;28;19932;-68
2024/03/29 05:03:14;;;;;;;;;;;;;;;5.00;47.01;93414.22;4936905;28;19930;-69
2024/03/29 05:05:39;;;;;;;;;;;;;;;5.37;45.91;93419.22;4941776;28;20025;-70
2024/03/29 05:08:05;;;;;;;;;;;;;;;5.14;46.32;93412.47;4941904;28;19969;-69
2024/03/29 05:10:30;;;;;;;;;;;;;;;5.33;46.61;93414.34;4940228;28;19981;-67
2024/03/29 05:12:55;;;;;;;;;;;;;;;5.47;45.95;93425.75;4943040;28;20375;-68
2024/03/29 05:15:20;;;;;;;;;;;;;;;5.61;44.90;93426.56;4943129;28;19934;-68
2024/03/29 05:17:45;;;;;;;;;;;;;;;5.61;46.95;93423.94;4941337;28;19942;-68
2024/03/29 05:20:11;;;;;;;;;;;;;;;5.32;46.37;93433.84;4943778;28;20041;-68
2024/03/29 05:22:36;;;;;;;;;;;;;;;5.43;46.98;93429.78;4940106;28;20713;-68
2024/03/29 05:25:03;;;;;;;;;;;;;;;5.63;46.96;93438.75;4941585;28;19930;-68
2024/03/29 05:27:28;;;;;;;;;;;;;;;5.37;47.23;93438.50;4940848;28;20657;-69
2024/03/29 05:29:53;;;;;;;;;;;;;;;5.41;47.00;93438.94;4938687;28;19926;-68
2024/03/29 05:32:19;;;;;;;;;;;;;;;5.51;45.62;93443.81;4941816;28;19930;-69
2024/03/29 05:34:44;;;;;;;;;;;;;;;5.50;47.90;93435.09;4943583;28;19926;-69
2024/03/29 05:37:09;;;;;;;;;;;;;;;5.82;46.32;93442.47;4946272;28;20606;-69
2024/03/29 05:39:34;;;;;;;;;;;;;;;5.42;46.86;93445.81;4943207;28;20060;-68
2024/03/29 05:42:00;;;;;;;;;;;;;;;5.45;48.18;93445.44;4940484;28;19923;-68
2024/03/29 05:44:25;;;;;;;;;;;;;;;5.34;47.21;93452.91;4951482;28;19970;-69
2024/03/29 05:46:50;;;;;;;;;;;;;;;5.47;46.92;93460.06;4940680;28;20314;-70
2024/03/29 05:49:16;;;;;;;;;;;;;;;5.31;47.27;93448.03;4943515;28;19925;-69
2024/03/29 05:51:41;;;;;;;;;;;;;;;5.54;46.81;93461.91;4940959;28;20754;-69
2024/03/29 05:54:07;;;;;;;;;;;;;;;4.02;50.61;93464.13;4941726;28;20447;-68
2024/03/29 05:56:32;;;;;;;;;;;;;;;4.86;50.07;93458.97;4942921;28;19930;-68
2024/03/29 05:58:57;;;;;;;;;;;;;;;4.89;49.17;93469.13;4940772;28;20659;-69
2024/03/29 06:01:23;;;;;;;;;;;;;;;4.99;50.39;93471.41;4940022;28;20148;-69
2024/03/29 06:03:48;;;;;;;;;;;;;;;5.24;49.85;93470.97;4940670;28;20600;-70
2024/03/29 06:06:17;;;;;;;;;;;;;;;5.17;50.18;93463.00;4939114;28;19936;-68
2024/03/29 06:08:42;;;;;;;;;;;;;;;5.30;49.85;93471.97;4939949;28;19930;-69
2024/03/29 06:11:08;;;;;;;;;;;;;;;5.53;49.30;93474.28;4940255;28;19931;-69
2024/03/29 06:19:01;;;;;;;;;;;;;;;5.69;49.50;93472.28;4940827;28;19957;-68
2024/03/29 06:21:26;;;;;;;;;;;;;;;5.82;49.22;93471.50;4940382;29;19943;-70
2024/03/29 06:23:51;;;;;;;;;;;;;;;5.86;49.22;93472.72;4940527;28;20030;-69
2024/03/29 06:26:16;;;;;;;;;;;;;;;5.80;49.23;93484.09;4939516;28;20539;-69
2024/03/29 06:28:42;;;;;;;;;;;;;;;5.78;49.19;93480.84;4939696;29;19997;-68
2024/03/29 06:31:07;;;;;;;;;;;;;;;5.96;48.91;93485.53;4942500;28;19926;-68
2024/03/29 06:33:32;;;;;;;;;;;;;;;5.97;48.67;93484.50;4940895;28;19977;-69
2024/03/29 06:35:57;;;;;;;;;;;;;;;6.08;48.24;93483.91;4941859;28;19937;-68
2024/03/29 06:38:23;;;;;;;;;;;;;;;6.03;48.45;93482.91;4939163;28;20506;-68
2024/03/29 06:40:48;;;;;;;;;;;;;;;6.05;48.41;93475.59;4939299;28;20359;-70
2024/03/29 06:43:13;;;;;;;;;;;;;;;6.11;48.19;93493.25;4944204;28;19927;-69
2024/03/29 06:45:44;;;;;;;;;;;;;;;6.08;48.10;93491.84;4944927;28;19927;-69
2024/03/29 06:48:10;;;;;;;;;;;;;;;5.96;48.41;93477.63;4940256;28;19930;-69
2024/03/29 06:50:35;;;;;;;;;;;;;;;5.91;48.88;93472.94;4944603;28;19933;-69
2024/03/29 06:53:00;;;;;;;;;;;;;;;5.93;48.80;93470.91;4944535;28;20474;-69
2024/03/29 06:55:26;;;;;;;;;;;;;;;6.21;47.79;93461.97;4942618;28;19923;-70
2024/03/29 06:57:51;;;;;;;;;;;;;;;5.95;48.54;93487.34;4942809;28;19918;-69
2024/03/29 07:00:16;;;;;;;;;;;;;;;5.96;48.44;93475.75;4941544;28;19938;-70
2024/03/29 07:02:42;;;;;;;;;;;;;;;6.02;48.37;93478.63;4943006;28;20013;-69
2024/03/29 07:05:07;;;;;;;;;;;;;;;5.97;48.54;93474.78;4942886;29;19918;-70
2024/03/29 07:07:33;;;;;;;;;;;;;;;5.87;49.00;93482.28;4943751;28;20047;-69
2024/03/29 07:09:58;;;;;;;;;;;;;;;5.94;48.54;93484.91;4941803;28;20021;-68
2024/03/29 07:12:23;;;;;;;;;;;;;;;6.21;47.79;93496.34;4944488;28;19925;-69
2024/03/29 07:14:48;;;;;;;;;;;;;;;6.14;48.48;93506.06;4942037;28;19926;-70
2024/03/29 07:17:14;;;;;;;;;;;;;;;6.22;48.07;93515.63;4944435;28;19926;-69
2024/03/29 07:19:39;;;;;;;;;;;;;;;6.27;47.96;93517.66;4943129;28;20359;-70
2024/03/29 07:22:04;;;;;;;;;;;;;;;6.31;47.99;93516.25;4942634;28;19934;-69
2024/03/29 07:24:30;;;;;;;;;;;;;;;6.28;48.58;93521.94;4943375;28;20352;-69
2024/03/29 07:26:55;;;;;;;;;;;;;;;6.09;48.49;93530.44;4943352;28;19926;-70
2024/03/29 07:29:21;;;;;;;;;;;;;;;6.09;48.52;93537.59;4943384;28;19934;-69
2024/03/29 07:31:46;;;;;;;;;;;;;;;6.08;49.05;93534.13;4943091;28;20565;-70
2024/03/29 07:34:11;;;;;;;;;;;;;;;6.21;49.36;93535.97;4941934;28;20792;-68
2024/03/29 07:36:37;;;;;;;;;;;;;;;6.04;50.10;93532.06;4942517;29;20379;-68
2024/03/29 07:39:03;;;;;;;;;;;;;;;5.97;49.65;93530.25;4942700;28;19926;-70
2024/03/29 07:41:29;;;;;;;;;;;;;;;6.09;50.67;93533.09;4949042;28;19922;-69
2024/03/29 07:43:59;;;;;;;;;;;;;;;6.38;48.21;93528.47;4939391;28;20265;-69
2024/03/29 07:46:24;;;;;;;;;;;;;;;6.38;48.79;93535.56;4938728;28;19926;-69
2024/03/29 07:48:49;;;;;;;;;;;;;;;6.45;48.81;93528.44;4945540;28;20463;-70
2024/03/29 07:51:14;;;;;;;;;;;;;;;6.65;47.91;93525.03;4942261;28;20579;-68
2024/03/29 07:53:40;;;;;;;;;;;;;;;6.85;48.19;93535.59;4942899;28;20383;-70
2024/03/29 07:56:05;;;;;;;;;;;;;;;6.68;50.59;93532.53;4943025;28;20053;-70
2024/03/29 07:58:31;;;;;;;;;;;;;;;6.96;49.57;93550.00;4942951;28;19950;-69
2024/03/29 08:00:56;;;;;;;;;;;;;;;6.75;49.47;93554.50;4942803;28;20044;-68
2024/03/29 08:03:22;;;;;;;;;;;;;;;6.62;49.40;93555.31;4942935;28;21174;-70
2024/03/29 08:05:55;;;;;;;;;;;;;;;6.76;48.97;93553.50;4942917;28;19977;-69
2024/03/29 08:08:22;;;;;;;;;;;;;;;6.85;47.70;93548.81;4943003;28;19923;-69
2024/03/29 08:10:47;;;;;;;;;;;;;;;6.77;48.29;93547.19;4943838;28;20465;-69
2024/03/29 08:13:15;;;;;;;;;;;;;;;6.66;48.51;93537.22;4944877;28;19974;-68
2024/03/29 08:15:41;;;;;;;;;;;;;;;6.75;50.81;93545.75;4940787;28;19930;-70
2024/03/29 08:18:06;;;;;;;;;;;;;;;6.79;48.70;93543.50;4940974;28;19953;-69
2024/03/29 08:20:31;;;;;;;;;;;;;;;7.11;48.67;93535.75;4941115;29;19934;-69
2024/03/29 08:22:58;;;;;;;;;;;;;;;7.15;47.79;93535.09;4941372;28;19930;-69
2024/03/29 08:25:23;;;;;;;;;;;;;;;7.00;47.49;93538.00;4941105;29;21103;-70
2024/03/29 08:27:48;;;;;;;;;;;;;;;6.95;50.41;93540.44;4940497;28;19965;-68
2024/03/29 08:30:14;;;;;;;;;;;;;;;7.35;48.33;93536.88;4940843;28;19981;-69
2024/03/29 08:32:39;;;;;;;;;;;;;;;7.19;49.10;93538.16;4941441;28;19923;-69
2024/03/29 08:35:04;;;;;;;;;;;;;;;6.88;49.18;93544.94;4940788;28;19927;-69
2024/03/29 08:37:30;;;;;;;;;;;;;;;7.15;50.00;93543.03;4941906;29;20335;-70
2024/03/29 08:39:55;;;;;;;;;;;;;;;7.37;47.20;93542.78;4940106;28;19937;-69
2024/03/29 08:42:21;;;;;;;;;;;;;;;7.44;46.66;93528.72;4940677;28;20376;-68
2024/03/29 08:44:46;;;;;;;;;;;;;;;7.53;48.14;93530.91;4940820;29;19969;-69
2024/03/29 08:47:11;;;;;;;;;;;;;;;7.82;47.85;93535.88;4940225;28;20311;-70
2024/03/29 08:49:37;;;;;;;;;;;;;;;7.62;49.86;93546.56;4940752;28;20025;-69
2024/03/29 08:52:04;;;;;;;;;;;;;;;7.48;48.10;93541.31;4940980;28;19933;-70
2024/03/29 08:54:30;;;;;;;;;;;;;;;7.63;48.57;93549.00;4941935;28;19930;-69
2024/03/29 08:56:55;;;;;;;;;;;;;;;7.86;45.91;93552.19;4941929;29;20430;-69
2024/03/29 08:59:20;;;;;;;;;;;;;;;7.86;46.73;93549.53;4941239;28;19977;-69
2024/03/29 09:01:48;;;;;;;;;;;;;;;7.87;48.08;93553.81;4941801;28;19926;-69
2024/03/29 09:04:14;;;;;;;;;;;;;;;7.74;49.13;93552.81;4940341;28;19930;-68
2024/03/29 09:06:39;;;;;;;;;;;;;;;7.94;47.85;93557.25;4941508;28;19933;-67
2024/03/29 09:09:05;;;;;;;;;;;;;;;7.82;49.55;93559.72;4941804;28;19931;-67
2024/03/29 09:11:30;;;;;;;;;;;;;;;8.12;47.29;93555.69;4939550;28;20446;-67
2024/03/29 09:13:58;;;;;;;;;;;;;;;8.16;49.20;93556.94;4939947;28;19922;-67
2024/03/29 09:16:23;;;;;;;;;;;;;;;8.19;48.21;93561.78;4937059;28;19926;-67
2024/03/29 09:18:48;;;;;;;;;;;;;;;8.24;48.44;93564.63;4938847;28;19927;-68
2024/03/29 09:21:14;;;;;;;;;;;;;;;7.86;49.04;93571.53;4939499;29;19922;-68
2024/03/29 09:23:41;;;;;;;;;;;;;;;7.99;49.03;93575.97;4939900;28;20414;-67
2024/03/29 09:26:06;;;;;;;;;;;;;;;7.98;49.40;93574.34;4937396;28;19926;-67
2024/03/29 09:28:34;;;;;;;;;;;;;;;8.06;47.87;93567.97;4940109;29;19922;-68
2024/03/29 09:30:59;;;;;;;;;;;;;;;8.19;47.89;93567.09;4939237;28;20292;-67
2024/03/29 09:33:25;;;;;;;;;;;;;;;8.12;49.11;93567.13;4940455;28;19926;-67
2024/03/29 09:35:50;;;;;;;;;;;;;;;7.65;50.31;93585.88;4939252;28;19938;-67
2024/03/29 09:38:15;;;;;;;;;;;;;;;7.93;49.33;93579.47;4940071;28;19927;-67
2024/03/29 09:40:41;;;;;;;;;;;;;;;8.20;48.66;93574.03;4939313;29;20033;-67
2024/03/29 09:43:07;;;;;;;;;;;;;;;8.27;47.91;93569.47;4939676;28;19926;-67
2024/03/29 09:45:36;;;;;;;;;;;;;;;8.00;50.33;93572.31;4938424;28;20543;-67
2024/03/29 09:48:04;;;;;;;;;;;;;;;8.14;50.67;93582.81;4939071;28;19930;-67
2024/03/29 09:50:30;;;;;;;;;;;;;;;8.47;48.55;93584.44;4938868;28;19927;-67
2024/03/29 09:52:55;;;;;;;;;;;;;;;8.58;47.46;93585.59;4939931;28;19922;-67
2024/03/29 09:55:21;;;;;;;;;;;;;;;8.75;46.92;93591.19;4939545;28;19926;-67
2024/03/29 09:57:46;;;;;;;;;;;;;;;8.99;46.83;93591.44;4939176;28;20311;-67
2024/03/29 10:00:11;;;;;;;;;;;;;;;8.77;47.79;93583.03;4937183;28;19980;-67
2024/03/29 10:02:37;;;;;;;;;;;;;;;8.89;45.77;93594.56;4938556;28;20399;-66
2024/03/29 10:05:03;;;;;;;;;;;;;;;8.78;46.38;93606.66;4937713;29;19954;-67
2024/03/29 10:07:29;;;;;;;;;;;;;;;8.67;46.69;93604.72;4938092;29;19927;-67
2024/03/29 10:09:55;;;;;;;;;;;;;;;8.72;47.02;93601.41;4938079;28;20462;-67
2024/03/29 10:12:20;;;;;;;;;;;;;;;8.24;50.35;93600.91;4940755;29;19977;-67
2024/03/29 10:14:49;;;;;;;;;;;;;;;7.88;51.13;93587.22;4939835;28;19981;-68
2024/03/29 10:17:15;;;;;;;;;;;;;;;8.53;49.54;93588.91;4940638;28;20021;-69
2024/03/29 10:19:40;;;;;;;;;;;;;;;8.82;48.95;93615.00;4939680;28;20029;-69
2024/03/29 10:22:06;;;;;;;;;;;;;;;8.56;50.00;93619.47;4940513;28;19927;-69
2024/03/29 10:24:33;;;;;;;;;;;;;;;8.62;48.29;93601.88;4940648;29;20666;-69
2024/03/29 10:26:58;;;;;;;;;;;;;;;8.92;46.65;93606.56;4939732;28;20021;-70
2024/03/29 10:29:27;;;;;;;;;;;;;;;8.96;46.97;93605.13;4939757;28;20017;-68
2024/03/29 10:31:53;;;;;;;;;;;;;;;8.80;49.16;93609.09;4939829;28;19927;-69
2024/03/29 10:34:18;;;;;;;;;;;;;;;8.96;45.86;93610.44;4937833;29;19972;-70
2024/03/29 10:36:43;;;;;;;;;;;;;;;8.59;48.71;93602.31;4940190;29;20022;-69
2024/03/29 10:39:11;;;;;;;;;;;;;;;8.65;49.16;93606.78;4939560;28;19922;-69
2024/03/29 10:41:37;;;;;;;;;;;;;;;8.85;47.05;93616.41;4939978;28;20570;-68
2024/03/29 10:44:03;;;;;;;;;;;;;;;9.01;46.14;93623.06;4939878;28;19922;-69
2024/03/29 10:46:29;;;;;;;;;;;;;;;9.15;49.05;93631.72;4938467;29;19965;-70
2024/03/29 10:48:54;;;;;;;;;;;;;;;8.97;47.63;93630.63;4940194;29;20560;-69
2024/03/29 10:51:19;;;;;;;;;;;;;;;8.96;49.38;93623.72;4937404;29;19961;-69
2024/03/29 10:53:44;;;;;;;;;;;;;;;8.66;49.05;93629.59;4938518;28;20427;-69
2024/03/29 10:56:10;;;;;;;;;;;;;;;8.88;47.36;93635.38;4938455;28;20366;-69
2024/03/29 10:58:35;;;;;;;;;;;;;;;9.29;47.08;93632.41;4937971;29;19927;-68
2024/03/29 11:01:00;;;;;;;;;;;;;;;9.33;46.54;93626.47;4939937;29;19974;-68
2024/03/29 11:03:28;;;;;;;;;;;;;;;9.67;47.53;93627.94;4939355;28;19927;-69
2024/03/29 11:05:55;;;;;;;;;;;;;;;9.70;45.26;93630.19;4937854;28;19953;-69
2024/03/29 11:08:22;;;;;;;;;;;;;;;9.51;46.06;93616.06;4938231;28;19922;-69
2024/03/29 11:10:48;;;;;;;;;;;;;;;9.58;47.93;93625.59;4939848;28;20515;-69
2024/03/29 11:13:33;;;;;;;;;;;;;;;9.67;44.55;93622.63;4940382;28;19998;-69
2024/03/29 11:15:59;;;;;;;;;;;;;;;9.62;45.17;93612.66;4938926;28;20627;-68
2024/03/29 11:18:25;;;;;;;;;;;;;;;9.67;47.28;93630.59;4939842;28;20400;-69
2024/03/29 11:20:51;;;;;;;;;;;;;;;9.55;44.49;93626.03;4937155;29;19965;-68
2024/03/29 11:23:18;;;;;;;;;;;;;;;9.63;45.93;93629.44;4939453;28;19930;-69
2024/03/29 11:26:02;;;;;;;;;;;;;;;9.69;43.55;93631.22;4938038;29;20107;-67
2024/03/29 11:28:29;;;;;;;;;;;;;;;9.92;44.92;93630.53;4942522;28;19973;-67
2024/03/29 11:30:59;;;;;;;;;;;;;;;9.89;44.63;93638.16;4942545;28;19926;-67
2024/03/29 11:33:29;;;;;;;;;;;;;;;10.09;44.93;93654.69;4943740;29;20009;-67
2024/03/29 11:35:54;;;;;;;;;;;;;;;9.75;44.66;93672.03;4940531;28;19931;-67
2024/03/29 11:38:19;;;;;;;;;;;;;;;9.87;45.66;93659.63;4943246;28;20080;-67
2024/03/29 11:41:03;;;;;;;;;;;;;;;9.75;44.07;93658.75;4941562;29;19927;-67
2024/03/29 11:43:32;;;;;;;;;;;;;;;9.58;46.13;93657.47;4942665;28;20501;-66
2024/03/29 11:45:57;;;;;;;;;;;;;;;9.67;44.53;93643.91;4942059;28;20069;-68
2024/03/29 11:48:25;;;;;;;;;;;;;;;9.53;44.38;93649.34;4942542;28;20018;-67
2024/03/29 11:50:50;;;;;;;;;;;;;;;9.56;43.82;93638.28;4942445;28;19927;-67
2024/03/29 11:53:15;;;;;;;;;;;;;;;9.63;44.29;93642.72;4942450;29;19922;-67
2024/03/29 11:55:41;;;;;;;;;;;;;;;9.49;43.64;93642.88;4942315;28;19926;-68
2024/03/29 11:58:06;;;;;;;;;;;;;;;9.64;43.62;93642.50;4942769;28;20402;-68
2024/03/29 12:00:31;;;;;;;;;;;;;;;9.51;46.05;93646.09;4941504;28;19931;-68
2024/03/29 12:02:57;;;;;;;;;;;;;;;9.58;43.73;93646.84;4940150;29;20030;-67
2024/03/29 12:05:22;;;;;;;;;;;;;;;9.58;45.46;93630.91;4942505;29;20395;-67
2024/03/29 12:07:48;;;;;;;;;;;;;;;9.49;44.85;93634.91;4942084;28;20586;-67
2024/03/29 12:10:13;;;;;;;;;;;;;;;9.69;43.81;93647.94;4940472;28;19937;-67
2024/03/29 12:12:41;;;;;;;;;;;;;;;9.40;45.31;93660.09;4939846;29;20064;-67
2024/03/29 12:15:06;;;;;;;;;;;;;;;9.42;45.47;93653.53;4941095;28;19926;-68
2024/03/29 12:17:32;;;;;;;;;;;;;;;9.35;44.61;93652.78;4942464;28;19922;-67
2024/03/29 12:20:01;;;;;;;;;;;;;;;9.59;44.97;93653.78;4941098;28;19930;-65
2024/03/29 12:22:26;;;;;;;;;;;;;;;9.42;45.35;93650.88;4939153;28;20563;-67
2024/03/29 12:24:51;;;;;;;;;;;;;;;9.27;46.07;93653.06;4941119;29;19926;-67
2024/03/29 12:27:17;;;;;;;;;;;;;;;9.34;47.28;93667.09;4937523;29;20548;-67
2024/03/29 12:29:42;;;;;;;;;;;;;;;9.18;46.23;93673.78;4936416;29;20388;-67
2024/03/29 12:32:07;;;;;;;;;;;;;;;9.35;44.79;93684.63;4941095;28;20025;-67
2024/03/29 12:34:33;;;;;;;;;;;;;;;9.42;46.00;93693.38;4951563;28;19926;-67
2024/03/29 12:36:59;;;;;;;;;;;;;;;9.33;45.25;93697.34;4939846;29;19928;-70
2024/03/29 12:39:26;;;;;;;;;;;;;;;9.17;46.11;93696.03;4939602;28;20028;-69
2024/03/29 12:41:53;;;;;;;;;;;;;;;9.08;47.49;93693.63;4940497;28;20392;-69
2024/03/29 12:44:18;;;;;;;;;;;;;;;9.08;47.41;93696.28;4940334;28;19977;-70
2024/03/29 12:46:43;;;;;;;;;;;;;;;9.13;45.52;93692.19;4953415;28;19934;-69
2024/03/29 12:49:10;;;;;;;;;;;;;;;9.15;47.55;93693.59;4941808;29;19933;-70
2024/03/29 12:51:35;;;;;;;;;;;;;;;8.88;49.24;93698.25;4940663;28;19927;-70
2024/03/29 12:54:04;;;;;;;;;;;;;;;8.10;51.69;93716.78;4941245;28;19945;-69
2024/03/29 12:56:30;;;;;;;;;;;;;;;8.25;51.34;93724.47;4939999;29;19923;-68
2024/03/29 12:58:55;;;;;;;;;;;;;;;8.07;50.51;93720.69;4940072;29;20033;-70